Time;durP1;ratioP1;P1;durP2;ratioP2;P2;SDS_P1;SDS_P2;PMS_P1;PMS_P2;Temp;Humidity;BMP_temperature;BMP_pressure;BME280_temperature;BME280_humidity;BME280_pressure;Samples;Min_cycle;Max_cycle;Signal;HPM_P1;HPM_P2
2021/01/23 00:00:21;;;;;;;26.02;8.80;;;;;;;5.28;71.45;99059.13;1670788;83;25892;-66
2021/01/23 00:02:49;;;;;;;14.80;6.60;;;;;;;5.21;71.64;99050.59;1640356;83;28050;-66
2021/01/23 00:05:15;;;;;;;15.93;6.58;;;;;;;5.21;71.77;99049.27;1673548;83;26605;-66
2021/01/23 00:07:41;;;;;;;18.35;7.67;;;;;;;5.22;71.80;99043.88;1668833;83;25844;-66
2021/01/23 00:10:09;;;;;;;21.23;8.48;;;;;;;5.23;71.79;99042.08;1673675;83;26313;-66
2021/01/23 00:12:35;;;;;;;26.90;8.05;;;;;;;5.20;71.78;99040.43;1669869;83;25933;-66
2021/01/23 00:15:02;;;;;;;20.05;8.23;;;;;;;5.10;71.65;99043.16;1667978;83;27717;-66
2021/01/23 00:17:28;;;;;;;21.93;8.25;;;;;;;5.02;71.78;99041.79;1670376;83;26061;-66
2021/01/23 00:19:54;;;;;;;17.37;7.00;;;;;;;4.89;71.80;99033.53;1666860;83;25875;-65
2021/01/23 00:22:20;;;;;;;18.12;7.53;;;;;;;4.82;71.90;99026.31;1629400;86;26630;-66
2021/01/23 00:24:46;;;;;;;19.92;7.28;;;;;;;4.73;71.93;99026.73;1629631;85;25826;-66
2021/01/23 00:27:12;;;;;;;16.57;6.80;;;;;;;4.71;72.05;99027.73;1625799;86;27828;-66
2021/01/23 00:29:38;;;;;;;19.73;7.83;;;;;;;4.69;72.08;99027.80;1618024;86;25861;-66
2021/01/23 00:32:04;;;;;;;15.30;7.37;;;;;;;4.68;72.15;99031.85;1616707;86;25831;-66
2021/01/23 00:34:30;;;;;;;13.60;6.75;;;;;;;4.66;72.18;99031.92;1612323;87;26415;-66
2021/01/23 00:36:56;;;;;;;18.25;7.17;;;;;;;4.62;72.22;99029.47;1618930;85;25935;-66
2021/01/23 00:39:22;;;;;;;17.67;8.25;;;;;;;4.61;72.31;99029.94;1620063;85;27824;-66
2021/01/23 00:41:49;;;;;;;25.68;10.08;;;;;;;4.61;72.32;99024.63;1617643;85;26073;-66
2021/01/23 00:44:14;;;;;;;20.12;8.03;;;;;;;4.59;72.32;99019.86;1623378;85;26134;-66
2021/01/23 00:46:41;;;;;;;20.32;8.03;;;;;;;4.53;72.18;99009.05;1622155;85;25921;-66
2021/01/23 00:49:07;;;;;;;16.93;7.17;;;;;;;4.37;72.21;99014.64;1618539;85;25909;-66
2021/01/23 00:51:33;;;;;;;20.85;7.42;;;;;;;4.34;72.43;99020.55;1620130;85;27495;-66
2021/01/23 00:53:59;;;;;;;20.40;7.60;;;;;;;4.32;72.52;99018.43;1618170;85;25972;-66
2021/01/23 00:56:25;;;;;;;15.15;6.97;;;;;;;4.33;72.61;99011.73;1648149;84;25416;-67
2021/01/23 00:58:51;;;;;;;15.90;7.05;;;;;;;4.31;72.56;99009.61;1655587;84;26537;-67
2021/01/23 01:01:17;;;;;;;21.93;8.18;;;;;;;4.30;72.67;99003.91;1655226;84;25415;-66
2021/01/23 01:03:43;;;;;;;18.37;8.18;;;;;;;4.32;72.70;99010.01;1656841;84;28572;-66
2021/01/23 01:06:09;;;;;;;19.90;8.70;;;;;;;4.32;72.78;99006.03;1650153;84;25901;-66
2021/01/23 01:08:35;;;;;;;21.23;9.20;;;;;;;4.30;72.78;99004.38;1657486;84;25872;-66
2021/01/23 01:11:01;;;;;;;22.55;8.88;;;;;;;4.28;72.84;98998.27;1649818;84;25833;-66
2021/01/23 01:13:27;;;;;;;22.75;10.45;;;;;;;4.25;72.80;98996.62;1648464;84;25747;-66
2021/01/23 01:15:53;;;;;;;19.92;9.28;;;;;;;4.21;72.87;98993.70;1652208;84;27822;-66
2021/01/23 01:18:19;;;;;;;27.35;10.70;;;;;;;4.18;72.96;98989.40;1650450;84;26478;-66
2021/01/23 01:20:45;;;;;;;23.65;10.58;;;;;;;4.19;73.06;98983.62;1655107;84;25862;-66
2021/01/23 01:23:12;;;;;;;23.62;9.33;;;;;;;4.18;73.00;98975.28;1650099;84;26376;-66
2021/01/23 01:25:38;;;;;;;24.90;10.88;;;;;;;4.16;73.04;98981.11;1648730;84;25822;-66
2021/01/23 01:28:05;;;;;;;21.93;9.65;;;;;;;4.14;73.12;98982.97;1649796;84;27577;-66
2021/01/23 01:30:31;;;;;;;22.07;9.13;;;;;;;4.14;73.18;98984.30;1656601;84;26049;-66
2021/01/23 01:32:57;;;;;;;21.12;9.20;;;;;;;4.13;73.21;98985.22;1650911;84;25777;-66
2021/01/23 01:35:24;;;;;;;22.85;9.65;;;;;;;4.14;73.37;98990.92;1652828;84;25909;-66
2021/01/23 01:37:50;;;;;;;18.40;9.00;;;;;;;4.15;73.39;98997.48;1651529;84;25773;-66
2021/01/23 01:40:16;;;;;;;21.20;7.80;;;;;;;4.16;73.44;99001.86;1648967;84;27602;-66
2021/01/23 01:42:43;;;;;;;17.62;8.08;;;;;;;4.16;73.48;98989.93;1651423;84;25740;-66
2021/01/23 01:45:12;;;;;;;18.70;9.00;;;;;;;4.16;73.54;98991.25;1649398;84;26456;-66
2021/01/23 01:47:40;;;;;;;30.17;10.25;;;;;;;4.16;73.57;98992.58;1651623;84;25873;-66
2021/01/23 01:50:08;;;;;;;24.18;9.73;;;;;;;4.12;73.59;98990.13;1649564;84;25891;-66
2021/01/23 01:52:34;;;;;;;25.17;9.78;;;;;;;4.06;73.66;98989.93;1652198;84;28311;-66
2021/01/23 01:55:01;;;;;;;22.93;8.78;;;;;;;4.05;73.77;98990.86;1651742;84;26264;-66
2021/01/23 01:57:27;;;;;;;20.30;7.83;;;;;;;4.00;73.81;98979.59;1653236;84;26492;-66
2021/01/23 01:59:53;;;;;;;22.42;7.90;;;;;;;3.97;73.94;98983.70;1656601;84;26123;-66
2021/01/23 02:02:45;;;;;;;18.48;8.10;;;;;;;3.94;73.92;98986.48;1656181;84;25924;-66
2021/01/23 02:05:35;;;;;;;23.65;8.95;;;;;;;3.92;74.00;98990.98;1657261;84;27749;-66
2021/01/23 02:08:48;;;;;;;24.20;9.38;;;;;;;3.88;74.08;98995.56;1652459;84;26307;-66
2021/01/23 02:11:37;;;;;;;27.02;9.38;;;;;;;3.88;74.18;98994.70;1653088;84;25870;-64
2021/01/23 02:14:20;;;;;;;25.15;10.48;;;;;;;3.86;74.17;98993.44;1641052;84;26550;-64
2021/01/23 02:16:50;;;;;;;33.10;10.70;;;;;;;3.84;74.22;98985.16;1651722;84;25886;-64
2021/01/23 02:19:52;;;;;;;25.08;9.28;;;;;;;3.78;74.13;98974.81;1652358;84;27465;-65
2021/01/23 02:22:50;;;;;;;32.67;9.75;;;;;;;3.71;74.22;98986.13;1641799;84;25801;-65
2021/01/23 02:25:18;;;;;;;29.25;9.15;;;;;;;3.67;74.28;98989.84;1651324;84;25898;-65
2021/01/23 02:27:58;;;;;;;30.55;10.88;;;;;;;3.67;74.37;98983.22;1648919;84;26246;-65
2021/01/23 02:30:30;;;;;;;26.65;9.90;;;;;;;3.67;74.34;98974.41;1653450;84;25797;-65
2021/01/23 02:32:59;;;;;;;29.85;8.80;;;;;;;3.62;74.35;98969.76;1653791;84;28027;-65
2021/01/23 02:35:26;;;;;;;25.62;8.08;;;;;;;3.61;74.40;98964.92;1655416;84;25829;-65
2021/01/23 02:37:53;;;;;;;22.25;7.30;;;;;;;3.59;74.42;98968.09;1655663;84;26373;-66
2021/01/23 02:40:21;;;;;;;20.62;6.67;;;;;;;3.56;74.49;98953.20;1653388;84;26404;-65
2021/01/23 02:42:49;;;;;;;15.00;6.37;;;;;;;3.54;74.52;98959.02;1655862;84;25850;-65
2021/01/23 02:45:15;;;;;;;17.30;6.90;;;;;;;3.54;74.56;98949.75;1656207;84;27918;-66
2021/01/23 02:47:42;;;;;;;13.55;5.60;;;;;;;3.54;74.58;98948.42;1652645;84;26188;-65
2021/01/23 02:50:10;;;;;;;11.83;5.80;;;;;;;3.53;74.54;98941.87;1655757;84;25928;-65
2021/01/23 02:52:59;;;;;;;14.87;6.37;;;;;;;3.53;74.58;98947.16;1651877;84;25920;-65
2021/01/23 02:55:30;;;;;;;14.83;5.25;;;;;;;3.51;74.58;98946.36;1654047;84;25989;-65
2021/01/23 02:58:04;;;;;;;13.65;5.42;;;;;;;3.50;74.60;98945.97;1661033;84;27545;-65
2021/01/23 03:00:31;;;;;;;12.23;5.12;;;;;;;3.47;74.63;98933.72;1654922;84;25761;-66
2021/01/23 03:03:00;;;;;;;10.82;5.00;;;;;;;3.47;74.67;98931.53;1650318;84;25868;-65
2021/01/23 03:05:30;;;;;;;7.78;4.28;;;;;;;3.47;74.70;98936.36;1651359;84;25954;-65
2021/01/23 03:07:56;;;;;;;8.73;4.42;;;;;;;3.46;74.72;98934.64;1652980;84;25936;-65
2021/01/23 03:10:35;;;;;;;9.45;4.33;;;;;;;3.46;74.74;98926.70;1652441;84;27509;-65
2021/01/23 03:13:01;;;;;;;11.70;4.55;;;;;;;3.47;74.73;98916.50;1651172;84;25887;-66
2021/01/23 03:15:27;;;;;;;9.93;4.65;;;;;;;3.45;74.75;98918.34;1650115;84;25863;-65
2021/01/23 03:17:53;;;;;;;11.20;4.22;;;;;;;3.46;74.74;98923.19;1654086;84;25839;-65
2021/01/23 03:20:20;;;;;;;11.50;5.22;;;;;;;3.46;74.75;98925.83;1650668;84;26231;-65
2021/01/23 03:22:46;;;;;;;16.93;5.33;;;;;;;3.46;74.79;98928.48;1650171;84;27670;-65
2021/01/23 03:25:12;;;;;;;12.73;5.50;;;;;;;3.47;74.78;98940.34;1654388;84;25799;-66
2021/01/23 03:27:38;;;;;;;20.45;6.10;;;;;;;3.46;74.83;98935.97;1658798;84;25838;-65
2021/01/23 03:30:06;;;;;;;17.10;6.20;;;;;;;3.48;74.84;98937.23;1662262;83;26670;-65
2021/01/23 03:32:32;;;;;;;14.40;5.83;;;;;;;3.50;74.89;98958.75;1660753;83;26030;-65
2021/01/23 03:34:58;;;;;;;18.62;6.20;;;;;;;3.52;74.91;98963.52;1629120;84;27624;-66
2021/01/23 03:37:24;;;;;;;11.88;5.78;;;;;;;3.54;74.92;98958.16;1633442;86;26399;-66
2021/01/23 03:39:51;;;;;;;13.95;6.12;;;;;;;3.54;74.87;98965.64;1635179;86;26588;-66
2021/01/23 03:42:18;;;;;;;18.05;6.17;;;;;;;3.52;74.86;98963.52;1627117;86;26505;-66
2021/01/23 03:44:45;;;;;;;18.12;5.72;;;;;;;3.53;74.90;98967.03;1619099;86;25826;-66
2021/01/23 03:47:11;;;;;;;14.55;6.42;;;;;;;3.52;74.89;98954.71;1655326;84;27519;-66
2021/01/23 03:49:37;;;;;;;8.78;5.62;;;;;;;3.50;74.89;98949.48;1618947;86;25789;-66
2021/01/23 03:52:04;;;;;;;14.43;6.20;;;;;;;3.47;74.86;98948.28;1652856;84;25933;-65
2021/01/23 03:54:30;;;;;;;19.95;6.42;;;;;;;3.44;74.91;98952.38;1642790;86;26027;-65
2021/01/23 03:56:56;;;;;;;13.98;6.87;;;;;;;3.42;74.94;98959.53;1646740;86;25628;-66
2021/01/23 03:59:29;;;;;;;22.27;7.42;;;;;;;3.43;74.99;98968.34;1643731;86;28591;-64
2021/01/23 04:01:55;;;;;;;16.00;6.42;;;;;;;3.42;74.96;98972.77;1646378;86;26455;-66
2021/01/23 04:04:21;;;;;;;17.00;6.30;;;;;;;3.37;74.90;98952.23;1650870;86;25861;-64
2021/01/23 04:06:49;;;;;;;27.20;8.85;;;;;;;3.32;74.98;98933.03;1650237;82;25897;-64
2021/01/23 04:09:15;;;;;;;17.62;7.92;;;;;;;3.31;74.98;98921.17;1644683;86;25885;-64
2021/01/23 04:11:41;;;;;;;20.82;7.70;;;;;;;3.30;75.03;98920.31;1650582;86;28361;-64
2021/01/23 04:14:07;;;;;;;20.10;7.65;;;;;;;3.30;75.09;98923.42;1642819;86;26232;-65
2021/01/23 04:16:33;;;;;;;18.23;8.08;;;;;;;3.30;75.13;98934.87;1642589;86;26269;-65
2021/01/23 04:18:59;;;;;;;22.30;9.53;;;;;;;3.31;75.12;98931.30;1652748;86;26133;-64
2021/01/23 04:21:25;;;;;;;23.60;8.10;;;;;;;3.30;75.11;98930.04;1640093;86;25829;-65
2021/01/23 04:23:51;;;;;;;14.45;7.00;;;;;;;3.31;75.17;98935.73;1637226;86;27535;-65
2021/01/23 04:26:17;;;;;;;18.02;6.97;;;;;;;3.33;75.16;98936.53;1631908;86;25843;-65
2021/01/23 04:28:44;;;;;;;19.45;8.00;;;;;;;3.31;75.19;98929.98;1630776;86;25803;-65
2021/01/23 04:31:10;;;;;;;20.95;6.97;;;;;;;3.31;75.16;98921.17;1633683;86;26460;-65
2021/01/23 04:33:36;;;;;;;14.63;6.90;;;;;;;3.29;75.10;98924.34;1636798;86;25780;-64
2021/01/23 04:36:03;;;;;;;19.07;7.45;;;;;;;3.24;75.14;98917.92;1632483;86;28105;-65
2021/01/23 04:38:29;;;;;;;13.53;6.78;;;;;;;3.24;75.19;98921.89;1629220;86;26523;-65
2021/01/23 04:40:56;;;;;;;17.07;7.35;;;;;;;3.23;75.20;98922.81;1639428;86;25817;-65
2021/01/23 04:43:23;;;;;;;18.10;7.00;;;;;;;3.21;75.21;98916.26;1625370;86;26025;-64
2021/01/23 04:45:49;;;;;;;15.98;7.65;;;;;;;3.19;75.18;98909.30;1630817;86;26293;-65
2021/01/23 04:48:17;;;;;;;15.72;7.28;;;;;;;3.15;75.20;98890.50;1639203;86;28611;-65
2021/01/23 04:50:45;;;;;;;14.58;6.78;;;;;;;3.10;75.26;98888.50;1631308;86;26650;-65
2021/01/23 04:53:13;;;;;;;20.25;7.75;;;;;;;3.07;75.24;98885.52;1639976;86;26488;-65
2021/01/23 04:55:39;;;;;;;18.45;8.40;;;;;;;3.02;75.27;98870.29;1635430;86;26476;-65
2021/01/23 04:58:05;;;;;;;23.57;7.12;;;;;;;3.02;75.37;98859.70;1589516;88;25753;-65
2021/01/23 05:00:32;;;;;;;27.32;8.18;;;;;;;3.00;75.35;98837.73;1589626;89;27514;-65
2021/01/23 05:03:03;;;;;;;19.10;7.87;;;;;;;3.00;75.38;98820.99;1594926;88;25968;-66
2021/01/23 05:05:33;;;;;;;13.85;7.00;;;;;;;3.00;75.40;98817.88;1580937;88;25886;-65
2021/01/23 05:08:19;;;;;;;13.22;7.08;;;;;;;3.00;75.44;98824.96;1589619;88;26370;-65
2021/01/23 05:10:48;;;;;;;21.05;7.05;;;;;;;3.01;75.48;98820.06;1697939;82;26390;-65
2021/01/23 05:13:17;;;;;;;19.02;8.15;;;;;;;3.01;75.52;98809.48;1696467;82;28314;-66
2021/01/23 05:15:45;;;;;;;14.83;7.53;;;;;;;3.01;75.55;98812.98;1715041;82;25821;-65
2021/01/23 05:18:16;;;;;;;16.67;6.50;;;;;;;3.02;75.54;98807.23;1713649;82;25861;-65
2021/01/23 05:20:51;;;;;;;15.32;7.45;;;;;;;3.01;75.58;98806.38;1716186;82;25897;-66
2021/01/23 05:23:27;;;;;;;11.08;7.05;;;;;;;3.03;75.61;98801.02;1714583;82;25838;-65
2021/01/23 05:26:00;;;;;;;16.20;7.95;;;;;;;3.07;75.66;98803.93;1708176;82;27690;-65
2021/01/23 05:28:33;;;;;;;16.67;6.97;;;;;;;3.08;75.69;98798.57;1713800;82;25738;-65
2021/01/23 05:31:02;;;;;;;19.57;7.55;;;;;;;3.09;75.73;98805.59;1725747;81;25893;-65
2021/01/23 05:33:31;;;;;;;13.43;7.33;;;;;;;3.10;75.75;98821.86;1698744;82;25826;-66
2021/01/23 05:36:12;;;;;;;12.20;7.03;;;;;;;3.14;75.76;98833.19;1712314;82;25844;-66
2021/01/23 05:38:46;;;;;;;21.55;8.45;;;;;;;3.17;75.81;98838.35;1714220;82;27692;-65
2021/01/23 05:41:15;;;;;;;20.52;8.23;;;;;;;3.20;75.80;98832.47;1712432;82;25787;-66
2021/01/23 05:43:49;;;;;;;21.55;8.80;;;;;;;3.23;75.77;98827.50;1689638;82;25786;-65
2021/01/23 05:46:31;;;;;;;15.43;7.67;;;;;;;3.26;75.83;98824.27;1714622;82;26139;-65
2021/01/23 05:48:58;;;;;;;13.75;8.40;;;;;;;3.31;75.81;98823.20;1712043;82;25920;-65
2021/01/23 05:51:25;;;;;;;18.95;8.60;;;;;;;3.31;75.76;98809.50;1714044;82;27487;-65
2021/01/23 05:53:51;;;;;;;18.02;8.90;;;;;;;3.32;75.81;98803.74;1714338;82;25731;-64
2021/01/23 05:56:17;;;;;;;22.10;9.78;;;;;;;3.36;75.90;98801.36;1710935;82;25734;-65
2021/01/23 05:58:45;;;;;;;21.42;8.85;;;;;;;3.39;75.88;98794.14;1712376;82;25831;-64
2021/01/23 06:01:17;;;;;;;24.27;10.05;;;;;;;3.37;75.83;98792.02;1714438;82;26311;-64
2021/01/23 06:03:53;;;;;;;21.42;9.00;;;;;;;3.36;75.89;98778.38;1713763;82;27454;-64
2021/01/23 06:06:20;;;;;;;20.65;9.83;;;;;;;3.37;75.92;98782.75;1711460;82;25925;-64
2021/01/23 06:08:48;;;;;;;13.83;8.05;;;;;;;3.38;75.90;98788.45;1710772;82;25866;-63
2021/01/23 06:11:23;;;;;;;18.07;7.90;;;;;;;3.34;75.87;98772.30;1710753;82;26507;-64
2021/01/23 06:13:51;;;;;;;24.23;8.95;;;;;;;3.30;75.96;98772.03;1709133;82;26239;-64
2021/01/23 06:16:35;;;;;;;24.32;9.80;;;;;;;3.26;75.99;98762.04;1715425;82;27488;-63
2021/01/23 06:19:15;;;;;;;20.75;9.58;;;;;;;3.22;76.02;98750.33;1713007;81;26134;-64
2021/01/23 06:21:48;;;;;;;23.95;9.63;;;;;;;3.21;76.10;98748.61;1708608;82;26502;-63
2021/01/23 06:24:17;;;;;;;24.27;10.38;;;;;;;3.22;76.15;98741.06;1710764;82;25940;-64
2021/01/23 06:26:59;;;;;;;27.65;9.78;;;;;;;3.20;76.17;98733.19;1709463;82;25827;-64
2021/01/23 06:29:45;;;;;;;21.62;11.00;;;;;;;3.18;76.16;98726.23;1708023;82;28594;-63
2021/01/23 06:32:17;;;;;;;27.27;9.90;;;;;;;3.13;76.28;98725.58;1713340;82;25996;-64
2021/01/23 06:35:02;;;;;;;22.20;9.90;;;;;;;3.11;76.38;98724.33;1709940;82;25860;-63
2021/01/23 06:37:37;;;;;;;33.35;10.03;;;;;;;3.08;76.48;98715.66;1711562;82;26070;-63
2021/01/23 06:40:27;;;;;;;22.30;9.75;;;;;;;3.06;76.51;98709.58;1711012;82;25807;-64
2021/01/23 06:42:55;;;;;;;19.73;9.80;;;;;;;3.04;76.60;98708.31;1714936;81;27489;-64
2021/01/23 06:45:25;;;;;;;24.10;10.30;;;;;;;3.03;76.63;98701.30;1713247;82;25771;-64
2021/01/23 06:47:57;;;;;;;23.05;10.13;;;;;;;3.02;76.72;98698.27;1713507;82;26016;-65
2021/01/23 06:50:30;;;;;;;29.02;10.68;;;;;;;3.00;76.73;98697.47;1709122;82;26781;-65
2021/01/23 06:52:57;;;;;;;36.40;12.07;;;;;;;3.02;76.85;98690.78;1712894;82;25997;-64
2021/01/23 06:55:48;;;;;;;22.20;9.33;;;;;;;3.02;76.88;98682.84;1716529;82;29015;-64
2021/01/23 06:58:19;;;;;;;21.60;10.25;;;;;;;3.01;77.00;98668.75;1708457;82;26002;-65
2021/01/23 07:00:49;;;;;;;22.10;10.28;;;;;;;3.00;77.07;98665.72;1715689;82;26263;-64
2021/01/23 07:03:17;;;;;;;18.57;9.28;;;;;;;3.00;77.10;98656.91;1709695;82;25823;-66
2021/01/23 07:05:49;;;;;;;25.45;11.03;;;;;;;3.01;77.24;98646.27;1718974;82;25787;-64
2021/01/23 07:08:29;;;;;;;22.10;10.82;;;;;;;3.00;77.22;98645.00;1712110;82;28098;-63
2021/01/23 07:11:17;;;;;;;26.45;12.25;;;;;;;3.00;77.28;98643.68;1708217;81;26139;-64
2021/01/23 07:14:07;;;;;;;26.55;10.63;;;;;;;2.97;77.34;98633.23;1687949;82;26117;-68
2021/01/23 07:16:43;;;;;;;28.45;12.45;;;;;;;2.72;77.35;98589.81;1685334;82;26760;-68
2021/01/23 07:19:09;;;;;;;23.38;11.45;;;;;;;2.94;77.48;98618.35;1709550;82;25870;-65
2021/01/23 07:21:41;;;;;;;22.07;10.60;;;;;;;2.94;77.54;98615.24;1708022;82;27479;-65
2021/01/23 07:24:09;;;;;;;21.25;11.53;;;;;;;2.91;77.66;98615.38;1719384;81;25869;-66
2021/01/23 07:26:36;;;;;;;26.75;11.30;;;;;;;2.91;77.78;98606.12;1699549;82;26374;-66
2021/01/23 07:29:03;;;;;;;28.52;12.53;;;;;;;2.90;77.90;98600.89;1674610;82;25869;-67
2021/01/23 07:31:32;;;;;;;32.20;13.38;;;;;;;2.89;77.96;98594.75;1715650;82;25862;-65
2021/01/23 07:34:01;;;;;;;25.27;12.10;;;;;;;2.91;78.00;98578.80;1714084;82;27454;-65
2021/01/23 07:36:39;;;;;;;38.08;13.43;;;;;;;2.94;78.09;98582.16;1706212;82;25967;-66
2021/01/23 07:39:13;;;;;;;28.20;11.45;;;;;;;2.96;78.07;98580.77;1714078;82;26024;-67
2021/01/23 07:41:48;;;;;;;25.88;12.82;;;;;;;2.98;78.15;98582.88;1708543;82;25837;-67
2021/01/23 07:44:16;;;;;;;27.13;13.35;;;;;;;2.99;78.21;98587.72;1715168;82;25516;-66
2021/01/23 07:46:45;;;;;;;28.52;13.20;;;;;;;3.03;78.26;98580.03;1712534;82;27514;-68
2021/01/23 07:49:26;;;;;;;28.27;13.65;;;;;;;3.04;78.28;98575.98;1712053;82;25965;-67
2021/01/23 07:52:08;;;;;;;32.30;14.58;;;;;;;3.05;78.32;98564.47;1712089;82;25806;-67
2021/01/23 07:54:52;;;;;;;32.58;13.48;;;;;;;3.07;78.36;98552.49;1712213;82;26712;-68
2021/01/23 07:57:18;;;;;;;36.45;14.10;;;;;;;3.05;78.38;98552.56;1714069;82;25825;-67
2021/01/23 07:59:45;;;;;;;32.93;15.10;;;;;;;3.09;78.51;98547.52;1716808;82;28205;-67
2021/01/23 08:02:14;;;;;;;35.90;17.50;;;;;;;3.12;78.57;98538.58;1711505;82;26220;-67
2021/01/23 08:04:40;;;;;;;31.40;15.98;;;;;;;3.14;78.62;98536.25;1714788;82;25837;-67
2021/01/23 08:07:30;;;;;;;35.10;15.80;;;;;;;3.15;78.58;98518.12;1716860;82;25864;-65
2021/01/23 08:10:18;;;;;;;33.33;17.55;;;;;;;3.15;78.69;98515.94;1715091;82;25876;-64
2021/01/23 08:12:58;;;;;;;32.30;15.80;;;;;;;3.15;78.83;98510.18;1711431;82;28288;-63
2021/01/23 08:15:30;;;;;;;37.25;17.20;;;;;;;3.19;78.82;98510.42;1712995;82;26031;-63
2021/01/23 08:17:58;;;;;;;42.17;19.82;;;;;;;3.20;78.84;98513.47;1728504;81;25837;-63
2021/01/23 08:20:38;;;;;;;39.38;19.05;;;;;;;3.22;78.97;98510.75;1708739;82;26508;-63
2021/01/23 08:23:11;;;;;;;46.53;21.93;;;;;;;3.25;78.98;98504.84;1708008;82;25961;-64
2021/01/23 08:25:52;;;;;;;34.90;18.37;;;;;;;3.26;79.02;98497.29;1715674;81;28380;-65
2021/01/23 08:28:42;;;;;;;41.98;21.27;;;;;;;3.33;79.01;98485.08;1713259;82;26404;-64
2021/01/23 08:31:25;;;;;;;70.37;28.98;;;;;;;3.33;79.12;98479.78;1707399;82;26629;-66
2021/01/23 08:33:56;;;;;;;48.35;22.48;;;;;;;3.31;79.09;98479.86;1711479;82;26984;-66
2021/01/23 08:36:30;;;;;;;41.42;22.32;;;;;;;3.32;79.15;98476.28;1711260;82;26006;-66
2021/01/23 08:39:02;;;;;;;43.98;22.22;;;;;;;3.32;79.25;98470.98;1688174;82;27131;-65
2021/01/23 08:41:29;;;;;;;45.95;21.27;;;;;;;3.34;79.27;98464.29;1707213;82;26084;-65
2021/01/23 08:43:55;;;;;;;39.05;20.45;;;;;;;3.32;79.26;98463.04;1712501;82;26358;-65
2021/01/23 08:46:22;;;;;;;48.95;22.05;;;;;;;3.33;79.30;98451.98;1706273;82;25905;-65
2021/01/23 08:48:50;;;;;;;47.35;22.82;;;;;;;3.35;79.42;98451.44;1701291;82;25738;-64
2021/01/23 08:51:17;;;;;;;41.58;21.82;;;;;;;3.33;79.49;98439.60;1710276;82;27937;-64
2021/01/23 08:53:43;;;;;;;36.93;21.68;;;;;;;3.38;79.59;98451.29;1697291;82;26506;-65
2021/01/23 08:56:13;;;;;;;41.55;21.48;;;;;;;3.41;79.56;98446.70;1701997;82;25760;-66
2021/01/23 08:58:40;;;;;;;49.17;24.23;;;;;;;3.40;79.53;98433.07;1708568;82;25873;-66
2021/01/23 09:01:06;;;;;;;46.83;25.23;;;;;;;3.39;79.61;98435.33;1724013;81;25956;-64
2021/01/23 09:03:32;;;;;;;53.65;27.10;;;;;;;3.43;79.74;98433.38;1721305;81;28080;-64
2021/01/23 09:05:58;;;;;;;54.27;26.90;;;;;;;3.45;79.69;98432.38;1727867;81;25766;-64
2021/01/23 09:08:25;;;;;;;53.50;26.07;;;;;;;3.47;79.72;98427.86;1711004;82;25936;-65
2021/01/23 09:10:51;;;;;;;49.40;26.37;;;;;;;3.51;79.84;98426.77;1707277;82;26135;-64
2021/01/23 09:13:18;;;;;;;65.65;30.85;;;;;;;3.54;79.79;98435.03;1708770;82;25850;-65
2021/01/23 09:15:44;;;;;;;51.18;27.87;;;;;;;3.51;79.92;98437.83;1709241;82;28259;-66
2021/01/23 09:18:10;;;;;;;59.20;32.23;;;;;;;3.54;79.95;98432.38;1707156;82;26102;-66
2021/01/23 09:20:36;;;;;;;55.30;28.50;;;;;;;3.57;80.01;98435.73;1693118;82;25877;-66
2021/01/23 09:23:02;;;;;;;58.02;30.43;;;;;;;3.58;80.01;98424.67;1706279;82;25762;-66
2021/01/23 09:25:28;;;;;;;59.38;29.10;;;;;;;3.61;80.13;98411.73;1711500;82;25928;-66
2021/01/23 09:27:54;;;;;;;63.55;29.42;;;;;;;3.63;80.13;98401.92;1711490;82;29124;-67
2021/01/23 09:30:21;;;;;;;54.53;28.95;;;;;;;3.68;80.19;98410.49;1709841;82;26138;-66
2021/01/23 09:32:47;;;;;;;61.00;31.10;;;;;;;3.74;80.30;98406.20;1725114;81;25808;-66
2021/01/23 09:35:13;;;;;;;54.40;28.12;;;;;;;3.86;80.41;98397.62;1718918;81;25858;-66
2021/01/23 09:37:40;;;;;;;55.25;28.25;;;;;;;3.90;80.30;98390.76;1711091;82;25864;-66
2021/01/23 09:40:08;;;;;;;55.23;26.48;;;;;;;3.90;80.32;98387.25;1711457;82;27487;-67
2021/01/23 09:42:35;;;;;;;58.73;31.65;;;;;;;3.96;80.36;98387.40;1707554;82;25763;-67
2021/01/23 09:45:01;;;;;;;58.23;30.62;;;;;;;4.01;80.59;98390.20;1708391;82;25728;-67
2021/01/23 09:47:27;;;;;;;52.73;28.40;;;;;;;4.06;80.52;98380.20;1711416;82;26472;-67
2021/01/23 09:49:53;;;;;;;52.70;29.02;;;;;;;4.09;80.53;98376.06;1726660;81;25662;-67
2021/01/23 09:52:19;;;;;;;62.17;31.90;;;;;;;4.14;80.46;98367.40;1680108;82;28036;-67
2021/01/23 09:54:45;;;;;;;62.40;33.23;;;;;;;4.15;80.50;98370.44;1693364;82;26268;-67
2021/01/23 09:57:11;;;;;;;61.25;29.02;;;;;;;4.18;80.54;98365.44;1712797;82;25795;-66
2021/01/23 09:59:38;;;;;;;59.25;29.57;;;;;;;4.19;80.45;98362.70;1715727;82;26563;-67
2021/01/23 10:02:05;;;;;;;54.63;31.37;;;;;;;4.20;80.47;98356.94;1717246;82;25749;-67
2021/01/23 10:04:31;;;;;;;63.52;34.00;;;;;;;4.17;80.51;98353.98;1714174;82;27473;-67
2021/01/23 10:06:57;;;;;;;67.60;35.45;;;;;;;4.20;80.77;98352.95;1710060;82;25889;-68
2021/01/23 10:09:24;;;;;;;62.98;32.20;;;;;;;4.27;80.78;98354.80;1712557;82;25860;-67
2021/01/23 10:11:50;;;;;;;77.78;38.80;;;;;;;4.27;80.66;98345.05;1708905;82;26366;-67
2021/01/23 10:14:18;;;;;;;73.33;38.70;;;;;;;4.31;80.86;98345.75;1713612;82;26482;-67
2021/01/23 10:16:44;;;;;;;71.20;37.17;;;;;;;4.34;80.79;98338.95;1714115;82;27461;-67
2021/01/23 10:19:10;;;;;;;72.32;35.63;;;;;;;4.36;80.79;98331.77;1711654;82;26369;-67
2021/01/23 10:21:36;;;;;;;61.15;31.52;;;;;;;4.39;80.86;98333.78;1712053;82;25784;-66
2021/01/23 10:24:03;;;;;;;67.12;34.20;;;;;;;4.41;80.81;98329.24;1714214;82;26846;-66
2021/01/23 10:26:31;;;;;;;66.92;33.50;;;;;;;4.43;80.92;98329.16;1712516;82;25895;-66
2021/01/23 10:28:58;;;;;;;76.12;33.38;;;;;;;4.45;80.92;98326.80;1715726;82;27996;-66
2021/01/23 10:31:24;;;;;;;66.17;32.23;;;;;;;4.47;80.93;98329.38;1716509;82;25862;-67
2021/01/23 10:33:50;;;;;;;65.55;33.98;;;;;;;4.49;80.96;98314.23;1716138;82;25790;-66
2021/01/23 10:36:18;;;;;;;69.32;33.18;;;;;;;4.51;81.02;98309.22;1717123;82;26192;-66
2021/01/23 10:38:46;;;;;;;57.00;29.75;;;;;;;4.54;81.04;98305.55;1712943;82;25762;-66
2021/01/23 10:41:12;;;;;;;69.72;33.38;;;;;;;4.55;81.03;98301.95;1715596;82;28530;-66
2021/01/23 10:43:38;;;;;;;72.08;33.00;;;;;;;4.52;80.97;98295.48;1706917;82;26268;-66
2021/01/23 10:46:04;;;;;;;66.45;33.60;;;;;;;4.53;81.09;98290.57;1714778;82;25854;-67
2021/01/23 10:48:30;;;;;;;63.17;31.68;;;;;;;4.53;81.10;98286.12;1712271;82;26336;-66
2021/01/23 10:50:57;;;;;;;76.40;35.38;;;;;;;4.56;81.20;98287.27;1711561;82;25830;-66
2021/01/23 10:53:23;;;;;;;81.15;38.33;;;;;;;4.61;81.30;98288.81;1717190;82;28340;-66
2021/01/23 10:55:49;;;;;;;76.60;37.28;;;;;;;4.71;81.33;98284.69;1713524;82;25983;-66
2021/01/23 10:58:15;;;;;;;78.10;36.98;;;;;;;4.70;81.16;98274.55;1710383;82;25859;-66
2021/01/23 11:00:41;;;;;;;81.95;43.33;;;;;;;4.61;81.16;98272.42;1710555;82;26691;-67
2021/01/23 11:03:07;;;;;;;70.83;38.25;;;;;;;4.59;81.35;98269.00;1712546;82;26117;-67
2021/01/23 11:05:33;;;;;;;83.60;43.68;;;;;;;4.60;81.38;98266.73;1710455;82;27494;-68
2021/01/23 11:07:59;;;;;;;92.33;42.60;;;;;;;4.64;81.51;98266.94;1706682;82;25780;-67
2021/01/23 11:10:25;;;;;;;66.33;33.90;;;;;;;4.68;81.54;98268.94;1713810;82;26241;-66
2021/01/23 11:12:52;;;;;;;67.15;32.73;;;;;;;4.69;81.41;98258.24;1712307;82;25945;-68
2021/01/23 11:15:18;;;;;;;64.45;32.98;;;;;;;4.69;81.41;98258.24;1712185;82;25773;-67
2021/01/23 11:17:44;;;;;;;69.67;33.42;;;;;;;4.68;81.41;98256.53;1712086;82;27633;-67
2021/01/23 11:20:13;;;;;;;65.67;34.13;;;;;;;4.71;81.52;98255.50;1711330;82;26306;-67
2021/01/23 11:22:39;;;;;;;68.45;34.43;;;;;;;4.75;81.61;98249.93;1712854;82;25831;-67
2021/01/23 11:25:07;;;;;;;60.60;31.97;;;;;;;4.81;81.62;98239.43;1708531;82;26579;-68
2021/01/23 11:27:33;;;;;;;65.28;31.00;;;;;;;4.83;81.54;98234.89;1710244;82;25765;-67
2021/01/23 11:29:59;;;;;;;65.45;31.97;;;;;;;4.86;81.61;98234.23;1715367;82;27480;-67
2021/01/23 11:32:25;;;;;;;66.40;33.30;;;;;;;4.89;81.65;98222.58;1709696;82;25786;-67
2021/01/23 11:34:51;;;;;;;64.15;33.40;;;;;;;4.94;81.69;98219.66;1708774;82;25773;-67
2021/01/23 11:37:17;;;;;;;72.22;34.13;;;;;;;4.95;81.65;98218.72;1714046;82;25839;-67
2021/01/23 11:39:44;;;;;;;59.03;30.82;;;;;;;4.97;81.71;98216.34;1713151;82;25699;-67